createdAt,value
2022-10-11T00:01:44.839Z,11.60
2022-10-11T00:03:58.282Z,20.20
2022-10-11T00:06:11.941Z,12.60
2022-10-11T00:08:25.543Z,14.10
2022-10-11T00:10:39.022Z,21.30
2022-10-11T00:12:53.487Z,17.20
2022-10-11T00:15:07.032Z,16.70
2022-10-11T00:17:20.347Z,6.40
2022-10-11T00:19:33.801Z,13.30
2022-10-11T00:21:47.233Z,9.70
2022-10-11T00:24:00.452Z,13.30
2022-10-11T00:26:15.350Z,23.40
2022-10-11T00:28:28.637Z,44.20
2022-10-11T00:30:45.402Z,48.90
2022-10-11T00:32:58.647Z,42.00
2022-10-11T00:35:13.970Z,25.10
2022-10-11T00:37:27.352Z,25.30
2022-10-11T00:39:40.728Z,53.70
2022-10-11T00:41:54.132Z,39.20
2022-10-11T00:44:23.680Z,64.70
2022-10-11T00:46:38.338Z,48.90
2022-10-11T00:48:54.489Z,39.10
2022-10-11T00:51:09.907Z,17.10
2022-10-11T00:53:24.075Z,18.90
2022-10-11T00:55:44.138Z,22.40
2022-10-11T00:57:59.529Z,20.70
2022-10-11T01:00:17.417Z,22.60
2022-10-11T01:02:31.658Z,25.40
2022-10-11T01:04:45.588Z,23.20
2022-10-11T01:07:01.328Z,15.70
2022-10-11T01:09:15.632Z,18.10
2022-10-11T01:11:33.000Z,18.90
2022-10-11T01:13:59.371Z,19.20
2022-10-11T01:16:22.105Z,19.40
2022-10-11T01:18:41.989Z,20.00
2022-10-11T01:21:04.550Z,21.50
2022-10-11T01:23:50.048Z,23.30
2022-10-11T01:26:25.014Z,19.70
2022-10-11T01:28:52.815Z,10.10
2022-10-11T01:31:13.766Z,11.30
2022-10-11T01:33:36.415Z,11.40
2022-10-11T01:35:57.428Z,12.00
2022-10-11T01:38:21.633Z,9.70
2022-10-11T01:40:40.904Z,13.80
2022-10-11T01:42:55.873Z,8.90
2022-10-11T01:45:11.318Z,8.00
2022-10-11T01:47:27.979Z,12.60
2022-10-11T01:49:41.489Z,10.50
2022-10-11T01:51:56.559Z,7.00
2022-10-11T01:54:27.709Z,5.60
2022-10-11T01:57:09.704Z,6.50
2022-10-11T01:59:32.601Z,10.90
2022-10-11T02:01:58.174Z,7.60
2022-10-11T02:04:20.611Z,12.70
2022-10-11T02:06:43.554Z,12.50
2022-10-11T02:09:08.233Z,20.00
2022-10-11T02:11:28.338Z,27.00
2022-10-11T02:13:46.917Z,29.70
2022-10-11T02:16:02.237Z,25.30
2022-10-11T02:18:19.391Z,23.80
2022-10-11T02:20:35.758Z,16.80
2022-10-11T02:22:53.052Z,16.60
2022-10-11T02:25:11.668Z,10.20
2022-10-11T02:27:29.331Z,6.50
2022-10-11T02:29:45.480Z,3.20
2022-10-11T02:32:00.803Z,2.90
2022-10-11T02:34:19.554Z,4.40
2022-10-11T02:36:39.993Z,4.10
2022-10-11T02:38:58.352Z,7.20
2022-10-11T02:41:16.259Z,28.20
2022-10-11T02:43:40.798Z,4.10
2022-10-11T02:45:58.013Z,16.80
2022-10-11T02:48:13.792Z,51.70
2022-10-11T02:50:28.039Z,55.40
2022-10-11T02:52:41.497Z,54.10
2022-10-11T02:54:54.603Z,61.10
2022-10-11T02:57:07.804Z,44.50
2022-10-11T02:59:21.259Z,44.30
2022-10-11T03:01:34.840Z,29.20
2022-10-11T03:03:48.574Z,34.00
2022-10-11T03:06:07.954Z,23.00
2022-10-11T03:08:22.224Z,21.10
2022-10-11T03:10:35.773Z,21.50
2022-10-11T03:12:49.103Z,20.70
2022-10-11T03:15:02.565Z,16.10
2022-10-11T03:17:35.191Z,24.30
2022-10-11T03:19:49.825Z,48.70
2022-10-11T03:22:03.313Z,60.60
2022-10-11T03:24:16.662Z,57.60
2022-10-11T03:26:29.894Z,38.10
2022-10-11T03:28:44.146Z,38.70
2022-10-11T03:30:57.910Z,37.10
2022-10-11T03:33:11.236Z,39.50
2022-10-11T03:35:24.690Z,19.00
2022-10-11T03:37:37.883Z,17.10
2022-10-11T03:39:51.821Z,12.30
2022-10-11T03:42:04.979Z,17.00
2022-10-11T03:44:18.310Z,16.60
2022-10-11T03:46:31.724Z,19.20
2022-10-11T03:48:45.460Z,11.10
2022-10-11T03:50:59.358Z,10.30
2022-10-11T03:53:12.737Z,7.20
2022-10-11T03:55:26.119Z,8.00
2022-10-11T03:57:39.231Z,10.40
2022-10-11T03:59:52.350Z,14.70
2022-10-11T04:02:05.826Z,5.70
2022-10-11T04:04:19.095Z,9.90
2022-10-11T04:06:32.330Z,7.90
2022-10-11T04:08:45.515Z,6.50
2022-10-11T04:10:58.807Z,5.90
2022-10-11T04:13:13.388Z,7.60
2022-10-11T04:15:26.687Z,12.80
2022-10-11T04:17:40.040Z,12.60
2022-10-11T04:19:53.293Z,7.00
2022-10-11T04:22:07.147Z,7.70
2022-10-11T04:24:20.454Z,12.20
2022-10-11T04:26:33.730Z,14.60
2022-10-11T04:28:47.064Z,11.40
2022-10-11T04:31:00.401Z,8.70
2022-10-11T04:33:14.243Z,12.10
2022-10-11T04:35:27.441Z,20.50
2022-10-11T04:37:40.852Z,21.70
2022-10-11T04:39:54.203Z,25.40
2022-10-11T04:42:07.501Z,24.10
2022-10-11T04:44:20.625Z,30.40
2022-10-11T04:46:34.053Z,29.20
2022-10-11T04:48:47.174Z,20.10
2022-10-11T04:51:00.366Z,40.90
2022-10-11T04:53:13.477Z,21.60
2022-10-11T04:55:26.600Z,26.20
2022-10-11T04:57:39.776Z,18.30
2022-10-11T04:59:53.086Z,17.50
2022-10-11T05:02:06.296Z,23.40
2022-10-11T05:04:19.657Z,19.10
2022-10-11T05:06:32.744Z,20.60
2022-10-11T05:08:45.869Z,26.40
2022-10-11T05:11:07.225Z,21.00
2022-10-11T05:13:20.500Z,18.60
2022-10-11T05:15:33.896Z,14.40
2022-10-11T05:17:47.002Z,16.70
2022-10-11T05:20:00.221Z,21.30
2022-10-11T05:22:13.334Z,16.40
2022-10-11T05:24:26.441Z,15.20
2022-10-11T05:26:39.615Z,25.80
2022-10-11T05:28:53.456Z,22.90
2022-10-11T05:31:06.824Z,28.30
2022-10-11T05:33:20.324Z,22.70
2022-10-11T05:35:33.391Z,88.00
2022-10-11T05:37:46.468Z,40.60
2022-10-11T05:39:59.628Z,40.30
2022-10-11T05:42:13.159Z,69.10
2022-10-11T05:44:26.699Z,33.70
2022-10-11T05:46:40.004Z,13.20
2022-10-11T05:48:53.081Z,17.90
2022-10-11T05:51:11.472Z,56.60
2022-10-11T05:53:24.707Z,28.60
2022-10-11T05:55:42.157Z,66.80
2022-10-11T05:57:59.284Z,62.00
2022-10-11T06:00:14.915Z,56.80
2022-10-11T06:02:28.191Z,15.50
2022-10-11T06:04:44.249Z,12.60
2022-10-11T06:06:57.608Z,81.20
2022-10-11T06:09:10.905Z,33.10
2022-10-11T06:11:26.659Z,146.90
2022-10-11T06:13:39.942Z,22.20
2022-10-11T06:15:53.313Z,38.70
2022-10-11T06:18:06.551Z,66.50
2022-10-11T06:20:19.862Z,42.10
2022-10-11T06:22:33.008Z,25.90
2022-10-11T06:24:46.065Z,17.70
2022-10-11T06:26:59.236Z,25.10
2022-10-11T06:29:12.776Z,44.00
2022-10-11T06:31:25.977Z,49.20
2022-10-11T06:33:39.578Z,17.80
2022-10-11T06:35:52.811Z,24.50
2022-10-11T06:38:06.375Z,40.30
2022-10-11T06:40:19.766Z,24.40
2022-10-11T06:42:32.948Z,39.40
2022-10-11T06:44:46.001Z,13.30
2022-10-11T06:46:59.039Z,29.80
2022-10-11T06:49:12.215Z,11.40
2022-10-11T06:51:27.101Z,14.70
2022-10-11T06:53:40.474Z,10.20
2022-10-11T06:55:53.654Z,11.30
2022-10-11T06:58:06.916Z,9.00
2022-10-11T07:00:22.575Z,11.30
2022-10-11T07:02:35.718Z,12.90
2022-10-11T07:04:48.858Z,10.10
2022-10-11T07:07:02.334Z,10.70
2022-10-11T07:09:15.759Z,16.70
2022-10-11T07:11:30.333Z,15.90
2022-10-11T07:13:43.999Z,21.60
2022-10-11T07:15:57.130Z,14.90
2022-10-11T07:18:10.503Z,11.70
2022-10-11T07:20:23.828Z,11.20
2022-10-11T07:22:36.861Z,10.20
2022-10-11T07:24:50.251Z,11.80
2022-10-11T07:27:04.429Z,11.40
2022-10-11T07:29:18.024Z,15.30
2022-10-11T07:31:31.691Z,10.70
2022-10-11T07:33:44.838Z,16.20
2022-10-11T07:36:00.721Z,7.10
2022-10-11T07:38:14.176Z,9.30
2022-10-11T07:40:27.276Z,16.40
2022-10-11T07:42:40.418Z,11.70
2022-10-11T07:44:53.457Z,11.10
2022-10-11T07:47:10.967Z,14.30
2022-10-11T07:49:24.548Z,16.50
2022-10-11T07:51:39.162Z,11.80
2022-10-11T07:53:53.338Z,8.20
2022-10-11T07:56:08.685Z,6.90
2022-10-11T07:58:22.215Z,7.30
2022-10-11T08:00:35.495Z,7.10
2022-10-11T08:02:48.826Z,9.10
2022-10-11T08:05:02.080Z,8.50
2022-10-11T08:07:15.365Z,8.50
2022-10-11T08:09:28.640Z,11.60
2022-10-11T08:11:42.822Z,4.40
2022-10-11T08:13:56.153Z,5.50
2022-10-11T08:16:16.464Z,9.90
2022-10-11T08:18:29.796Z,7.10
2022-10-11T08:20:44.638Z,11.00
2022-10-11T08:22:58.573Z,11.20
2022-10-11T08:25:12.636Z,7.20
2022-10-11T08:27:26.062Z,6.20
2022-10-11T08:29:39.409Z,8.10
2022-10-11T08:31:52.652Z,8.60
2022-10-11T08:34:06.051Z,5.10
2022-10-11T08:36:19.636Z,10.30
2022-10-11T08:38:32.931Z,8.00
2022-10-11T08:40:52.022Z,8.80
2022-10-11T08:43:09.678Z,6.40
2022-10-11T08:45:30.358Z,10.60
2022-10-11T08:47:47.976Z,10.20
2022-10-11T08:50:01.926Z,9.60
2022-10-11T08:52:26.961Z,11.00
2022-10-11T08:54:46.894Z,6.30
2022-10-11T08:57:00.105Z,10.30
2022-10-11T08:59:28.090Z,12.50
2022-10-11T09:01:44.291Z,8.20
2022-10-11T09:03:58.735Z,6.00
2022-10-11T09:06:21.879Z,14.20
2022-10-11T09:08:45.545Z,10.00
2022-10-11T09:11:09.880Z,10.40
2022-10-11T09:13:42.865Z,10.50
2022-10-11T09:18:38.408Z,6.50
2022-10-11T09:21:00.705Z,8.50
2022-10-11T09:23:23.269Z,10.40
2022-10-11T09:25:41.202Z,9.80
2022-10-11T09:28:08.862Z,10.10
2022-10-11T09:30:23.634Z,13.60
2022-10-11T09:32:40.265Z,14.00
2022-10-11T09:34:57.032Z,13.70
2022-10-11T09:37:19.862Z,13.20
2022-10-11T09:39:36.077Z,6.10
2022-10-11T09:41:57.193Z,11.30
2022-10-11T09:44:17.181Z,10.70
2022-10-11T09:46:39.103Z,11.90
2022-10-11T09:48:55.638Z,7.20
2022-10-11T09:51:18.282Z,10.40
2022-10-11T09:53:55.577Z,7.10
2022-10-11T09:56:10.635Z,7.50
2022-10-11T09:58:39.888Z,6.20
2022-10-11T10:01:07.861Z,10.60
2022-10-11T10:03:35.435Z,6.80
2022-10-11T10:05:48.711Z,10.60
2022-10-11T10:08:25.580Z,7.20
2022-10-11T10:10:44.689Z,5.90
2022-10-11T10:13:03.509Z,8.30
2022-10-11T10:15:24.215Z,8.80
2022-10-11T10:17:39.177Z,9.30
2022-10-11T10:19:57.775Z,8.10
2022-10-11T10:22:19.021Z,8.30
2022-10-11T10:24:41.372Z,11.10
2022-10-11T10:27:19.533Z,5.50
2022-10-11T10:29:32.692Z,9.70
2022-10-11T10:32:14.219Z,8.70
2022-10-11T10:34:32.007Z,8.30
2022-10-11T10:36:48.594Z,6.30
2022-10-11T10:39:08.607Z,10.60
2022-10-11T10:41:23.479Z,8.10
2022-10-11T10:43:40.263Z,7.80
2022-10-11T10:46:19.700Z,6.30
2022-10-11T10:49:23.236Z,8.20
2022-10-11T10:51:28.024Z,14.70
2022-10-11T10:53:48.003Z,8.20
2022-10-11T10:56:09.673Z,10.60
2022-10-11T10:58:41.183Z,10.70
2022-10-11T11:00:57.157Z,14.30
2022-10-11T11:03:16.810Z,9.80
2022-10-11T11:05:41.490Z,8.00
2022-10-11T11:07:59.414Z,4.80
2022-10-11T11:10:16.677Z,7.40
2022-10-11T11:12:49.285Z,5.90
2022-10-11T11:15:13.664Z,6.10
2022-10-11T11:17:36.125Z,5.90
2022-10-11T11:20:04.643Z,5.30
2022-10-11T11:22:32.603Z,12.70
2022-10-11T11:24:56.869Z,10.70
2022-10-11T11:27:19.074Z,5.40
2022-10-11T11:29:54.502Z,10.20
2022-10-11T11:32:23.766Z,7.20
2022-10-11T11:34:41.866Z,8.80
2022-10-11T11:36:58.828Z,6.70
2022-10-11T11:39:16.393Z,7.30
2022-10-11T11:41:32.135Z,8.70
2022-10-11T11:43:52.775Z,13.40
2022-10-11T11:46:12.591Z,11.50
2022-10-11T11:48:28.310Z,10.70
2022-10-11T11:50:46.630Z,11.00
2022-10-11T11:53:03.333Z,9.40
2022-10-11T11:55:22.057Z,12.60
2022-10-11T11:57:45.349Z,11.20
2022-10-11T12:00:03.997Z,9.90
2022-10-11T12:02:48.608Z,6.50
2022-10-11T12:05:01.983Z,11.10
2022-10-11T12:07:17.803Z,9.10
2022-10-11T12:09:31.497Z,10.70
2022-10-11T12:11:54.712Z,7.60
2022-10-11T12:14:18.162Z,6.00
2022-10-11T12:16:31.455Z,10.20
2022-10-11T12:18:55.190Z,9.40
2022-10-11T12:21:22.582Z,8.60
2022-10-11T12:23:50.729Z,11.10
2022-10-11T12:26:44.864Z,16.30
2022-10-11T12:29:30.127Z,7.30
2022-10-11T12:31:46.131Z,5.90
2022-10-11T12:34:36.493Z,14.10
2022-10-11T12:36:51.225Z,12.70
2022-10-11T12:39:33.300Z,10.60
2022-10-11T12:41:56.675Z,4.10
2022-10-11T12:44:27.487Z,28.40
2022-10-11T12:47:19.733Z,12.10
2022-10-11T12:49:51.460Z,7.60
2022-10-11T12:52:08.094Z,11.40
2022-10-11T12:54:55.631Z,18.60
2022-10-11T12:57:33.445Z,14.00
2022-10-11T12:59:48.907Z,11.70
2022-10-11T13:02:04.593Z,7.20
2022-10-11T13:04:20.250Z,16.10
2022-10-11T13:06:35.943Z,7.10
2022-10-11T13:08:53.779Z,9.80
2022-10-11T13:11:09.466Z,12.90
2022-10-11T13:13:30.474Z,14.10
2022-10-11T13:15:45.838Z,10.80
2022-10-11T13:18:04.589Z,8.30
2022-10-11T13:20:23.730Z,11.50
2022-10-11T13:22:42.489Z,13.30
2022-10-11T13:24:58.837Z,9.20
2022-10-11T13:27:19.704Z,9.40
2022-10-11T13:29:38.113Z,9.30
2022-10-11T13:31:52.571Z,9.50
2022-10-11T13:34:05.943Z,8.90
2022-10-11T13:36:20.852Z,8.50
2022-10-11T13:38:36.072Z,7.40
2022-10-11T13:40:51.145Z,14.60
2022-10-11T13:43:04.942Z,7.20
2022-10-11T13:45:20.303Z,9.60
2022-10-11T13:47:35.232Z,5.60
2022-10-11T13:49:54.670Z,9.30
2022-10-11T13:52:10.333Z,6.90
2022-10-11T13:54:23.407Z,8.60
2022-10-11T13:56:40.146Z,7.80
2022-10-11T13:58:55.861Z,8.80
2022-10-11T14:01:10.919Z,5.40
2022-10-11T14:03:27.697Z,8.90
2022-10-11T14:05:44.304Z,5.10
2022-10-11T14:07:57.735Z,6.40
2022-10-11T14:10:22.487Z,7.40
2022-10-11T14:12:40.983Z,4.80
2022-10-11T14:14:54.311Z,12.20
2022-10-11T14:17:15.726Z,12.50
2022-10-11T14:19:28.922Z,10.10
2022-10-11T14:21:55.385Z,10.20
2022-10-11T14:24:11.646Z,8.30
2022-10-11T14:26:26.193Z,6.90
2022-10-11T14:28:39.392Z,13.10
2022-10-11T14:30:52.617Z,15.10
2022-10-11T14:33:06.929Z,6.80
2022-10-11T14:35:25.301Z,8.40
2022-10-11T14:37:38.609Z,5.90
2022-10-11T14:39:52.265Z,7.30
2022-10-11T14:42:05.908Z,8.30
2022-10-11T14:44:19.809Z,6.10
2022-10-11T14:46:33.165Z,7.10
2022-10-11T14:49:01.201Z,9.60
2022-10-11T14:51:21.345Z,12.30
2022-10-11T14:53:38.642Z,9.70
2022-10-11T14:55:54.349Z,6.60
2022-10-11T14:58:07.789Z,9.80
2022-10-11T15:00:25.928Z,6.70
2022-10-11T15:02:39.082Z,7.30
2022-10-11T15:04:53.059Z,10.70
2022-10-11T15:07:07.187Z,8.50
2022-10-11T15:09:22.080Z,7.60
2022-10-11T15:11:35.290Z,7.50
2022-10-11T15:13:48.926Z,8.10
2022-10-11T15:16:02.298Z,7.80
2022-10-11T15:18:18.752Z,10.90
2022-10-11T15:20:34.369Z,10.90
2022-10-11T15:22:47.738Z,7.80
2022-10-11T15:25:01.453Z,9.50
2022-10-11T15:27:18.262Z,4.50
2022-10-11T15:29:31.583Z,7.80
2022-10-11T15:31:45.494Z,11.70
2022-10-11T15:34:00.629Z,4.60
2022-10-11T15:36:17.535Z,11.20
2022-10-11T15:38:31.413Z,8.00
2022-10-11T15:40:44.634Z,13.00
2022-10-11T15:42:58.343Z,6.60
2022-10-11T15:45:12.630Z,6.50
2022-10-11T15:47:25.787Z,13.30
2022-10-11T15:49:38.973Z,10.20
2022-10-11T15:51:52.376Z,8.00
2022-10-11T15:54:05.602Z,7.70
2022-10-11T15:56:21.202Z,7.00
2022-10-11T15:58:36.611Z,12.20
2022-10-11T16:00:51.387Z,53.80
2022-10-11T16:03:04.889Z,66.80
2022-10-11T16:05:18.172Z,56.60
2022-10-11T16:07:31.508Z,66.40
2022-10-11T16:09:44.735Z,69.20
2022-10-11T16:11:58.026Z,33.20
2022-10-11T16:14:11.581Z,34.20
2022-10-11T16:16:24.718Z,21.60
2022-10-11T16:18:38.112Z,10.40
2022-10-11T16:20:53.096Z,25.40
2022-10-11T16:23:06.314Z,14.80
2022-10-11T16:25:20.052Z,27.20
2022-10-11T16:27:33.680Z,67.10
2022-10-11T16:29:46.717Z,108.40
2022-10-11T16:31:59.871Z,95.20
2022-10-11T16:34:12.940Z,143.10
2022-10-11T16:36:37.387Z,98.60
2022-10-11T16:38:50.558Z,59.00
2022-10-11T16:41:03.663Z,124.40
2022-10-11T16:43:17.015Z,160.20
2022-10-11T16:45:30.557Z,143.10
2022-10-11T16:47:43.755Z,165.30
2022-10-11T16:49:57.004Z,167.30
2022-10-11T16:52:12.079Z,134.60
2022-10-11T16:54:26.152Z,100.70
2022-10-11T16:56:40.210Z,76.00
2022-10-11T16:58:54.524Z,72.00
2022-10-11T17:01:10.544Z,65.20
2022-10-11T17:03:23.726Z,59.50
2022-10-11T17:05:39.901Z,43.30
2022-10-11T17:07:53.189Z,66.60
2022-10-11T17:10:06.641Z,81.70
2022-10-11T17:12:21.005Z,164.50
2022-10-11T17:14:34.187Z,86.70
2022-10-11T17:16:47.887Z,52.50
2022-10-11T17:19:01.070Z,56.80
2022-10-11T17:21:16.149Z,55.20
2022-10-11T17:23:29.362Z,52.20
2022-10-11T17:25:47.400Z,67.10
2022-10-11T17:28:01.079Z,70.30
2022-10-11T17:30:16.374Z,61.20
2022-10-11T17:32:29.760Z,89.30
2022-10-11T17:34:43.062Z,86.60
2022-10-11T17:36:56.388Z,90.60
2022-10-11T17:39:14.103Z,110.80
2022-10-11T17:41:31.776Z,100.00
2022-10-11T17:43:45.685Z,55.80
2022-10-11T17:46:04.019Z,84.30
2022-10-11T17:48:17.464Z,77.60
2022-10-11T17:50:30.536Z,50.70
2022-10-11T17:52:43.662Z,74.00
2022-10-11T17:54:56.850Z,63.70
2022-10-11T17:57:10.101Z,68.00
2022-10-11T17:59:28.761Z,92.50
2022-10-11T18:01:42.057Z,68.10
2022-10-11T18:04:00.024Z,65.40
2022-10-11T18:06:15.096Z,86.00
2022-10-11T18:08:28.515Z,95.60
2022-10-11T18:10:47.352Z,65.10
2022-10-11T18:13:05.768Z,56.20
2022-10-11T18:15:19.863Z,64.10
2022-10-11T18:17:33.023Z,46.30
2022-10-11T18:19:46.266Z,68.70
2022-10-11T18:22:02.047Z,39.10
2022-10-11T18:24:20.425Z,60.60
2022-10-11T18:26:33.807Z,51.00
2022-10-11T18:28:47.910Z,57.20
2022-10-11T18:31:01.687Z,97.20
2022-10-11T18:33:15.337Z,62.00
2022-10-11T18:35:28.576Z,63.90
2022-10-11T18:37:41.834Z,61.30
2022-10-11T18:39:55.276Z,52.70
2022-10-11T18:42:08.414Z,57.90
2022-10-11T18:44:22.182Z,67.40
2022-10-11T18:46:36.073Z,82.90
2022-10-11T18:48:50.922Z,38.20
2022-10-11T18:51:11.395Z,54.20
2022-10-11T18:53:25.270Z,55.00
2022-10-11T18:55:38.535Z,47.20
2022-10-11T18:57:51.796Z,56.20
2022-10-11T19:00:22.710Z,38.30
2022-10-11T19:02:38.288Z,52.20
2022-10-11T19:04:53.956Z,50.20
2022-10-11T19:07:07.045Z,56.70
2022-10-11T19:09:23.104Z,81.40
2022-10-11T19:11:37.300Z,72.20
2022-10-11T19:13:50.509Z,53.80
2022-10-11T19:16:10.167Z,57.40
2022-10-11T19:18:23.526Z,79.10
2022-10-11T19:20:37.803Z,56.70
2022-10-11T19:22:51.250Z,48.40
2022-10-11T19:25:04.557Z,65.00
2022-10-11T19:27:17.984Z,44.30
2022-10-11T19:29:32.233Z,68.50
2022-10-11T19:31:47.680Z,45.30
2022-10-11T19:34:02.775Z,52.50
2022-10-11T19:36:17.355Z,52.90
2022-10-11T19:38:30.659Z,91.90
2022-10-11T19:40:45.043Z,59.30
2022-10-11T19:42:58.266Z,55.10
2022-10-11T19:45:12.976Z,40.90
2022-10-11T19:47:26.453Z,39.20
2022-10-11T19:49:39.728Z,66.60
2022-10-11T19:51:52.967Z,48.00
2022-10-11T19:54:08.275Z,51.00
2022-10-11T19:56:22.312Z,56.80
2022-10-11T19:58:35.779Z,53.70
2022-10-11T20:00:49.631Z,52.70
2022-10-11T20:03:03.516Z,52.60
2022-10-11T20:05:17.005Z,46.50
2022-10-11T20:07:30.671Z,55.80
2022-10-11T20:09:44.333Z,55.00
2022-10-11T20:11:57.692Z,46.60
2022-10-11T20:14:11.090Z,42.20
2022-10-11T20:16:27.202Z,47.70
2022-10-11T20:18:41.138Z,41.90
2022-10-11T20:21:02.319Z,56.20
2022-10-11T20:23:18.129Z,49.60
2022-10-11T20:25:31.423Z,56.40
2022-10-11T20:27:45.562Z,47.70
2022-10-11T20:29:58.816Z,55.20
2022-10-11T20:32:12.011Z,46.00
2022-10-11T20:34:25.153Z,60.00
2022-10-11T20:36:39.048Z,42.60
2022-10-11T20:38:53.374Z,57.20
2022-10-11T20:41:10.614Z,52.60
2022-10-11T20:43:24.145Z,68.00
2022-10-11T20:45:37.310Z,47.80
2022-10-11T20:47:50.392Z,49.60
2022-10-11T20:50:03.590Z,46.80
2022-10-11T20:52:16.775Z,57.70
2022-10-11T20:54:30.303Z,41.10
2022-10-11T20:56:44.392Z,58.80
2022-10-11T20:58:59.313Z,45.80
2022-10-11T21:01:17.531Z,53.00
2022-10-11T21:03:30.960Z,42.90
2022-10-11T21:05:44.613Z,49.10
2022-10-11T21:07:57.894Z,83.10
2022-10-11T21:10:11.827Z,78.80
2022-10-11T21:12:25.797Z,70.60
2022-10-11T21:14:39.467Z,46.60
2022-10-11T21:16:52.872Z,21.20
2022-10-11T21:19:07.439Z,18.70
2022-10-11T21:21:21.067Z,13.20
2022-10-11T21:23:34.638Z,14.40
2022-10-11T21:25:47.970Z,18.80
2022-10-11T21:28:01.260Z,31.00
2022-10-11T21:30:15.764Z,51.70
2022-10-11T21:32:29.185Z,44.00
2022-10-11T21:34:42.573Z,51.80
2022-10-11T21:36:55.975Z,53.60
2022-10-11T21:39:09.709Z,49.40
2022-10-11T21:41:24.284Z,41.10
2022-10-11T21:43:39.183Z,28.10
2022-10-11T21:45:52.609Z,43.60
2022-10-11T21:48:05.978Z,42.10
2022-10-11T21:50:19.358Z,67.50
2022-10-11T21:52:33.123Z,53.80
2022-10-11T21:54:46.628Z,49.40
2022-10-11T21:57:00.000Z,47.60
2022-10-11T21:59:13.416Z,37.00
2022-10-11T22:01:26.923Z,67.20
2022-10-11T22:03:40.236Z,55.00
2022-10-11T22:05:53.643Z,47.50
2022-10-11T22:08:06.836Z,44.70
2022-10-11T22:10:20.059Z,66.70
2022-10-11T22:12:33.450Z,57.90
2022-10-11T22:14:46.891Z,45.80
2022-10-11T22:17:00.335Z,82.80
2022-10-11T22:19:13.450Z,51.30
2022-10-11T22:21:27.272Z,55.80
2022-10-11T22:23:40.842Z,60.20
2022-10-11T22:25:53.949Z,45.80
2022-10-11T22:28:07.350Z,43.60
2022-10-11T22:30:20.665Z,50.20
2022-10-11T22:32:34.021Z,15.40
2022-10-11T22:34:47.797Z,15.90
2022-10-11T22:37:00.834Z,16.00
2022-10-11T22:39:13.892Z,10.10
2022-10-11T22:41:27.305Z,17.60
2022-10-11T22:43:40.665Z,16.10
2022-10-11T22:45:53.841Z,17.60
2022-10-11T22:48:06.971Z,14.30
2022-10-11T22:50:20.088Z,47.10
2022-10-11T22:52:33.334Z,18.10
2022-10-11T22:54:46.438Z,21.90
2022-10-11T22:56:59.573Z,20.60
2022-10-11T22:59:12.875Z,24.80
2022-10-11T23:01:26.017Z,18.70
2022-10-11T23:03:39.632Z,15.90
2022-10-11T23:06:00.290Z,22.20
2022-10-11T23:08:14.114Z,15.40
2022-10-11T23:10:27.364Z,32.30
2022-10-11T23:12:40.511Z,23.30
2022-10-11T23:14:53.648Z,21.50
2022-10-11T23:17:07.103Z,36.80
2022-10-11T23:19:20.271Z,19.90
2022-10-11T23:21:33.398Z,17.10
2022-10-11T23:23:46.462Z,18.40
2022-10-11T23:26:10.050Z,17.40
2022-10-11T23:28:23.628Z,23.10
2022-10-11T23:30:37.193Z,12.10
2022-10-11T23:32:50.586Z,17.70
2022-10-11T23:35:03.955Z,14.60
2022-10-11T23:37:17.319Z,13.50
2022-10-11T23:39:30.707Z,13.50
2022-10-11T23:41:44.046Z,18.80
2022-10-11T23:43:57.389Z,19.50
2022-10-11T23:46:10.680Z,17.20
2022-10-11T23:48:23.793Z,20.80
2022-10-11T23:50:36.096Z,15.20
2022-10-11T23:52:49.252Z,18.60
2022-10-11T23:55:02.468Z,11.00
2022-10-11T23:57:15.760Z,11.70
2022-10-11T23:59:29.354Z,16.90
